Data for 07/01/2007

Time Sea-Level Adjusted Pressure Absolute Pressure Temperature Relative Humidity Dew Point   
(mb) (inHg) (mb) (inHg) (C) (F) (%) (C) (F)
00:05 1019 30.09 848 25.04 19.9 67.8 50 9.2 48.5
00:10 1019 30.09 848 25.04 19.9 67.7 49 9 48.3
00:15 1019 30.09 848 25.04 19.8 67.6 50 9.1 48.3
00:20 1019 30.09 848 25.04 19.7 67.5 50 9.1 48.4
00:25 1019 30.09 848 25.04 19.7 67.4 50 9 48.2
00:30 1019 30.09 848 25.04 19.6 67.2 49 8.9 47.9
00:35 1019 30.09 848 25.04 19.6 67.2 50 8.9 48.1
00:40 1019 30.09 848 25.04 19.4 66.9 50 8.8 47.8
00:45 1019 30.09 849 25.07 19.4 66.9 50 8.8 47.8
00:50 1019 30.09 849 25.07 19.3 66.7 50 8.8 47.8
00:55 1019 30.09 849 25.07 19.3 66.7 50 8.6 47.5
01:00 1019 30.09 849 25.07 19.2 66.6 50 8.7 47.7
01:05 1020 30.12 849 25.07 19.2 66.5 50 8.6 47.4
01:10 1020 30.12 849 25.07 19.2 66.5 49 8.4 47.2
01:15 1020 30.12 849 25.07 19.1 66.4 50 8.5 47.3
01:20 1020 30.12 849 25.07 19.1 66.3 50 8.5 47.3
01:25 1020 30.12 849 25.07 18.9 66.1 50 8.5 47.3
01:30 1020 30.12 849 25.07 18.3 64.9 58 9.9 49.8
01:35 1020 30.12 849 25.07 17.3 63.1 59 9.4 48.9
01:40 1020 30.12 849 25.07 16.9 62.4 62 9.7 49.4
01:45 1020 30.12 849 25.07 16.6 61.8 63 9.5 49.1
01:50 1020 30.12 849 25.07 16.3 61.4 64 9.7 49.4
01:55 1020 30.12 849 25.07 16 60.7 65 9.5 49.1
02:00 1020 30.12 849 25.07 15.7 60.2 66 9.5 49.1
02:05 1020 30.12 849 25.07 15.5 59.8 70 10 50
02:10 1020 30.12 849 25.07 15.7 60.3 61 8.2 46.8
02:15 1020 30.12 849 25.07 16.7 62 57 8.2 46.8
02:20 1020 30.12 849 25.07 17.1 62.8 54 7.9 46.2
02:25 1020 30.12 849 25.07 16.9 62.5 57 8.5 47.4
02:30 1020 30.12 849 25.07 16.5 61.7 62 9.4 48.9
02:35 1020 30.12 849 25.07 15.6 60.1 65 9 48.2
02:40 1020 30.12 849 25.07 15.2 59.3 66 9 48.2
02:45 1020 30.12 849 25.07 15.2 59.3 65 8.7 47.6
02:50 1020 30.12 849 25.07 15.1 59.1 65 8.6 47.5
02:55 1020 30.12 849 25.07 15.4 59.7 64 8.7 47.6
03:00 1020 30.12 849 25.07 15 58.9 65 8.6 47.5
03:05 1020 30.12 849 25.07 14.9 58.8 66 8.7 47.7
03:10 1020 30.12 849 25.07 14.4 57.9 71 9.3 48.7
03:15 1020 30.12 849 25.07 14.1 57.4 71 8.9 48
03:20 1020 30.12 849 25.07 13.9 57 71 8.7 47.7
03:25 1020 30.12 849 25.07 13.8 56.8 69 8.2 46.8
03:30 1020 30.12 849 25.07 14.3 57.7 66 8.2 46.7
03:35 1020 30.12 849 25.07 14.5 58.1 66 8.3 47
03:40 1020 30.12 849 25.07 14.7 58.4 65 8.1 46.6
03:45 1020 30.12 849 25.07 14.6 58.3 66 8.4 47.1
03:50 1020 30.12 849 25.07 14.7 58.4 65 8.2 46.7
03:55 1020 30.12 849 25.07 14.7 58.4 65 8.3 47
04:00 1020 30.12 849 25.07 14.4 57.9 66 8.2 46.7
04:05 1020 30.12 849 25.07 14.4 57.9 65 8.1 46.5
04:10 1020 30.12 850 25.1 14.3 57.7 71 9.2 48.5
04:15 1020 30.12 849 25.07 14.5 58 64 7.8 46.1
04:20 1020 30.12 850 25.1 14.3 57.8 66 8.2 46.8
04:25 1020 30.12 849 25.07 14.1 57.4 67 8.2 46.8
04:30 1020 30.12 850 25.1 13.9 57 68 8.1 46.6
04:35 1020 30.12 850 25.1 13.8 56.9 68 8 46.4
04:40 1020 30.12 850 25.1 13.8 56.9 67 7.8 46
04:45 1020 30.12 850 25.1 14.4 57.9 64 7.8 46
04:50 1020 30.12 850 25.1 14.7 58.5 63 7.8 46
04:55 1020 30.12 850 25.1 14.9 58.8 64 8.1 46.6
05:00 1021 30.15 850 25.1 14.7 58.5 65 8.2 46.7
05:05 1021 30.15 850 25.1 14.4 57.8 66 8.1 46.6
05:10 1021 30.15 850 25.1 14.2 57.6 66 8.1 46.6
05:15 1021 30.15 850 25.1 14.1 57.3 67 8.1 46.6
05:20 1021 30.15 850 25.1 13.9 56.9 69 8.3 46.9
05:25 1021 30.15 850 25.1 13.6 56.5 70 8.2 46.8
05:30 1021 30.15 850 25.1 13.5 56.3 70 8.2 46.7
05:35 1021 30.15 850 25.1 13.6 56.4 69 8.1 46.6
05:40 1021 30.15 850 25.1 13.7 56.7 70 8.3 47
05:45 1021 30.15 850 25.1 13.8 56.9 68 8.1 46.6
05:50 1021 30.15 850 25.1 14.1 57.4 67 8.2 46.7
05:55 1021 30.15 850 25.1 14.1 57.3 67 8.2 46.7
06:00 1021 30.15 850 25.1 14.2 57.6 67 8.2 46.8
06:05 1021 30.15 850 25.1 14.3 57.7 67 8.2 46.7
06:10 1021 30.15 850 25.1 14.2 57.5 68 8.5 47.3
06:15 1021 30.15 850 25.1 13.8 56.8 70 8.4 47.1
06:20 1021 30.15 850 25.1 13.4 56 72 8.4 47.1
06:25 1021 30.15 850 25.1 13.1 55.6 72 8.2 46.8
06:30 1021 30.15 850 25.1 13.1 55.5 72 8.3 46.9
06:35 1021 30.15 850 25.1 13.1 55.6 71 8.1 46.5
06:40 1021 30.15 851 25.13 13.4 56.2 70 8.2 46.8
06:45 1021 30.15 851 25.13 13.8 56.8 69 8.2 46.7
06:50 1021 30.15 851 25.13 14.1 57.4 68 8.3 46.9
06:55 1021 30.15 851 25.13 14.3 57.8 68 8.5 47.3
07:00 1022 30.18 851 25.13 14.3 57.7 69 8.7 47.7
07:05 1022 30.18 851 25.13 14.4 58 66 8.2 46.8
07:10 1022 30.18 851 25.13 14.9 58.7 66 8.5 47.4
07:15 1022 30.18 851 25.13 15.1 59.1 65 8.5 47.3
07:20 1022 30.18 851 25.13 15.2 59.3 64 8.6 47.5
07:25 1022 30.18 851 25.13 15.2 59.4 66 9 48.1
07:30 1022 30.18 851 25.13 15.4 59.7 65 8.9 48.1
07:35 1022 30.18 851 25.13 15.5 59.8 65 8.9 48
07:40 1022 30.18 851 25.13 15.6 60 65 9 48.1
07:45 1022 30.18 851 25.13 16 60.8 62 8.9 48
07:50 1022 30.18 851 25.13 16.2 61.2 63 9.2 48.5
07:55 1022 30.18 851 25.13 16.5 61.7 60 8.9 48
08:00 1022 30.18 851 25.13 16.8 62.2 61 9.2 48.5
08:05 1022 30.18 851 25.13 17.1 62.8 60 9.3 48.8
08:10 1022 30.18 851 25.13 17.5 63.5 59 9.4 49
08:15 1022 30.18 851 25.13 17.7 63.9 59 9.6 49.4
08:20 1022 30.18 851 25.13 18.6 65.4 56 9.7 49.5
08:25 1022 30.18 851 25.13 19.2 66.5 52 9.3 48.7
08:30 1022 30.18 851 25.13 19.4 66.9 50 8.8 47.9
08:35 1022 30.18 851 25.13 20 68 48 8.9 48.1
08:40 1022 30.18 851 25.13 20.8 69.4 41 7.3 45.1
08:45 1022 30.18 851 25.13 20.7 69.3 43 7.7 45.9
08:50 1022 30.18 851 25.13 20.6 69 42 7.4 45.4
08:55 1022 30.18 851 25.13 20.7 69.2 42 7.3 45.2
09:00 1022 30.18 851 25.13 20.7 69.3 43 7.8 46
09:05 1022 30.18 851 25.13 21.4 70.6 42 8 46.4
09:10 1022 30.18 851 25.13 21 69.8 42 7.9 46.2
09:15 1022 30.18 851 25.13 20.8 69.4 42 7.5 45.5
09:20 1022 30.18 851 25.13 21.3 70.3 41 7.6 45.8
09:25 1022 30.18 851 25.13 21.9 71.5 40 7.9 46.3
09:30 1022 30.18 851 25.13 21.8 71.2 40 7.8 46.1
09:35 1022 30.18 851 25.13 21.1 70 41 7.7 45.8
09:40 1022 30.18 851 25.13 21.3 70.4 42 8 46.4
09:45 1022 30.18 851 25.13 21.5 70.8 40 7.7 45.8
09:50 1022 30.18 851 25.13 21.9 71.3 41 8.3 46.9
09:55 1022 30.18 851 25.13 21.7 71 41 8 46.5
10:00 1022 30.18 851 25.13 21.5 70.6 42 8.2 46.7
10:05 1022 30.18 851 25.13 21.5 70.7 41 7.9 46.3
10:10 1022 30.18 851 25.13 22.3 72.1 39 8 46.3
10:15 1022 30.18 851 25.13 22.8 73 38 7.9 46.2
10:20 1022 30.18 851 25.13 22.7 72.9 42 9.5 49
10:25 1022 30.18 851 25.13 22.3 72.1 42 8.8 47.9
10:30 1022 30.18 851 25.13 22.5 72.6 40 8.6 47.5
10:35 1021 30.15 851 25.13 22.2 72 41 8.6 47.5
10:40 1021 30.15 851 25.13 22.5 72.5 41 8.8 47.8
10:45 1021 30.15 851 25.13 22.7 72.9 39 8.2 46.7
10:50 1021 30.15 851 25.13 22.9 73.2 40 8.7 47.6
10:55 1021 30.15 851 25.13 23.4 74.1 38 8.3 47
11:00 1021 30.15 850 25.1 23.9 74.9 37 8.6 47.4
11:05 1021 30.15 851 25.13 24.3 75.8 35 8.3 46.9
11:10 1021 30.15 851 25.13 25.1 77.1 34 8.2 46.7
11:15 1021 30.15 851 25.13 25.1 77.1 36 9.3 48.8
11:20 1021 30.15 850 25.1 24.7 76.5 35 8.5 47.3
11:25 1021 30.15 850 25.1 24.5 76.1 38 9.3 48.7
11:30 1021 30.15 850 25.1 24 75.1 37 8.5 47.3
11:35 1021 30.15 850 25.1 24.3 75.7 37 8.8 47.9
11:40 1021 30.15 850 25.1 23.9 75 36 8.2 46.8
11:45 1021 30.15 850 25.1 24.5 76.2 38 9.4 48.9
11:50 1021 30.15 850 25.1 24.7 76.5 36 8.8 47.8
11:55 1021 30.15 850 25.1 25.7 78.3 33 8.4 47.2
12:00 1021 30.15 850 25.1 26.6 79.8 32 8.6 47.4
12:05 1021 30.15 850 25.1 26.4 79.4 33 9 48.2
12:10 1021 30.15 850 25.1 26.3 79.3 34 9.4 49
12:15 1021 30.15 850 25.1 25.7 78.3 35 9.4 48.8
12:20 1021 30.15 850 25.1 25.4 77.7 34 8.5 47.2
12:25 1021 30.15 850 25.1 25.4 77.8 33 8.3 47
12:30 1021 30.15 850 25.1 26.2 79.2 33 8.8 47.9
12:35 1021 30.15 850 25.1 26.6 79.9 32 8.9 48.1
12:40 1021 30.15 850 25.1 25.7 78.3 33 8.6 47.5
12:45 1021 30.15 850 25.1 25.9 78.6 33 8.5 47.3
12:50 1021 30.15 850 25.1 26.6 80 32 9 48.2
12:55 1021 30.15 850 25.1 26.8 80.2 32 8.8 47.9
13:00 1020 30.12 850 25.1 26.6 80 32 8.7 47.7
13:05 1020 30.12 850 25.1 26.9 80.5 32 9 48.2
13:10 1020 30.12 850 25.1 26.6 79.9 32 8.6 47.6
13:15 1020 30.12 850 25.1 26.3 79.3 30 7.8 46.1
13:20 1020 30.12 850 25.1 27.2 81 30 8.5 47.3
13:25 1020 30.12 849 25.07 27.6 81.7 28 7.9 46.3
13:30 1020 30.12 849 25.07 27.2 81 29 7.9 46.2
13:35 1020 30.12 849 25.07 27.5 81.4 27 7.3 45.1
13:40 1020 30.12 849 25.07 26.6 79.9 28 6.9 44.5
13:45 1020 30.12 849 25.07 27.6 81.7 27 7.2 44.9
13:50 1020 30.12 849 25.07 27.8 82 26 6.8 44.2
13:55 1020 30.12 849 25.07 27.7 81.8 24 5.6 42
14:00 1020 30.12 849 25.07 28.1 82.6 24 6.2 43.1
14:05 1020 30.12 849 25.07 28.7 83.6 25 7.3 45.1
14:10 1020 30.12 849 25.07 29.2 84.5 26 7.9 46.2
14:15 1020 30.12 849 25.07 29.2 84.6 26 8.3 46.9
14:20 1020 30.12 849 25.07 28.9 83.9 26 7.5 45.5
14:25 1020 30.12 849 25.07 28.1 82.5 26 7.1 44.7
14:30 1020 30.12 849 25.07 29 84.2 25 7.5 45.5
14:35 1020 30.12 849 25.07 30 86 24 7.6 45.7
14:40 1020 30.12 849 25.07 29.2 84.5 25 7.5 45.6
14:45 1020 30.12 849 25.07 29.9 85.7 25 7.8 46.1
14:50 1020 30.12 849 25.07 29.5 85.2 23 6.8 44.2
14:55 1020 30.12 849 25.07 29 84.1 25 7.1 44.9
15:00 1019 30.09 849 25.07 29 84.2 24 6.9 44.4
15:05 1019 30.09 849 25.07 28.6 83.5 23 6 42.9
15:10 1019 30.09 849 25.07 28.3 83 26 7.1 44.8
15:15 1019 30.09 849 25.07 28.5 83.2 26 7.3 45.2
15:20 1019 30.09 849 25.07 29.4 84.9 22 5.8 42.5
15:25 1019 30.09 848 25.04 30.1 86.1 22 6.5 43.6
15:30 1019 30.09 848 25.04 28.3 82.9 24 6.1 42.9
15:35 1019 30.09 848 25.04 28.1 82.7 22 5 41
15:40 1019 30.09 848 25.04 29.3 84.7 23 6.5 43.7
15:45 1019 30.09 848 25.04 28.7 83.6 24 6.1 43.1
15:50 1019 30.09 848 25.04 28.1 82.5 22 4.6 40.3
15:55 1019 30.09 848 25.04 28.4 83.2 22 4.7 40.4
16:00 1019 30.09 848 25.04 29.1 84.3 22 5.4 41.6
16:05 1019 30.09 848 25.04 28.9 84.1 22 5.3 41.5
16:10 1019 30.09 848 25.04 29.9 85.8 20 4.6 40.3
16:15 1019 30.09 848 25.04 29.7 85.4 20 4.4 40
16:20 1019 30.09 848 25.04 29.1 84.3 19 3.7 38.7
16:25 1019 30.09 848 25.04 29.3 84.8 18 2.6 36.7
16:30 1019 30.09 848 25.04 29.3 84.8 18 3.1 37.6
16:35 1019 30.09 848 25.04 29.5 85 19 4 39.3
16:40 1018 30.06 848 25.04 29.6 85.4 18 3.2 37.8
16:45 1018 30.06 848 25.04 29.3 84.7 19 3.5 38.3
16:50 1018 30.06 848 25.04 29.8 85.6 18 3 37.3
16:55 1018 30.06 848 25.04 29.6 85.3 18 3.2 37.7
17:00 1018 30.06 848 25.04 29.7 85.4 18 3.3 37.9
17:05 1018 30.06 847 25.01 29.9 85.7 17 2.2 35.9
17:10 1018 30.06 847 25.01 29.9 85.8 16 1.6 34.9
17:15 1018 30.06 847 25.01 29.8 85.6 16 1.4 34.6
17:20 1018 30.06 847 25.01 30.1 86.2 15 1.3 34.3
17:25 1018 30.06 847 25.01 30.1 86.2 15 1.4 34.5
17:30 1018 30.06 847 25.01 30 85.9 15 1.1 33.9
17:35 1018 30.06 847 25.01 30.2 86.4 15 1.1 33.9
17:40 1018 30.06 847 25.01 30 85.9 17 2.2 36
17:45 1018 30.06 847 25.01 29.9 85.8 15 0.6 33.2
17:50 1018 30.06 847 25.01 30.7 87.3 15 1.2 34.2
17:55 1018 30.06 847 25.01 30.9 87.6 15 1.5 34.7
18:00 1018 30.06 847 25.01 30.5 86.9 16 1.8 35.3
18:05 1018 30.06 847 25.01 30.2 86.4 16 2.4 36.3
18:10 1017 30.03 847 25.01 30.3 86.5 16 1.9 35.5
18:15 1017 30.03 847 25.01 30.3 86.6 17 3.2 37.8
18:20 1017 30.03 846 24.98 30 86 16 1.6 34.9
18:25 1017 30.03 846 24.98 29.5 85.2 17 2.7 36.8
18:30 1017 30.03 846 24.98 29.5 85.1 17 2.2 35.9
18:35 1017 30.03 846 24.98 29.5 85.2 17 2.2 36
18:40 1017 30.03 846 24.98 29.8 85.6 16 1.5 34.7
18:45 1017 30.03 846 24.98 30.3 86.5 15 1.1 33.9
18:50 1017 30.03 846 24.98 30.4 86.7 16 1.9 35.4
18:55 1017 30.03 846 24.98 30.1 86.2 16 1.8 35.3
19:00 1017 30.03 846 24.98 29.7 85.5 16 1.7 35
19:05 1017 30.03 846 24.98 29.6 85.3 17 2.5 36.5
19:10 1017 30.03 846 24.98 29.1 84.4 18 2.9 37.2
19:15 1017 30.03 846 24.98 29 84.3 19 3.2 37.8
19:20 1017 30.03 846 24.98 29 84.1 19 3.4 38.1
19:25 1017 30.03 846 24.98 29.3 84.8 19 3.9 38.9
19:30 1017 30.03 846 24.98 29.5 85.1 20 4.2 39.5
19:35 1017 30.03 846 24.98 29 84.2 21 4.6 40.2
19:40 1017 30.03 846 24.98 28.7 83.7 22 5.1 41.1
19:45 1017 30.03 846 24.98 28.3 83 24 5.9 42.6
19:50 1017 30.03 846 24.98 28 82.4 22 4.5 40.2
19:55 1017 30.03 846 24.98 27.8 82 22 4.6 40.2
20:00 1017 30.03 846 24.98 27.5 81.4 23 4.7 40.4
20:05 1017 30.03 846 24.98 27.1 80.8 24 4.9 40.8
20:10 1017 30.03 846 24.98 26.7 80.1 24 4.6 40.3
20:15 1017 30.03 846 24.98 26.4 79.6 24 4.6 40.3
20:20 1017 30.03 846 24.98 26.4 79.4 24 4.4 39.9
20:25 1017 30.03 846 24.98 26.2 79.2 24 4.6 40.3
20:30 1017 30.03 846 24.98 26 78.8 25 4.8 40.7
20:35 1017 30.03 846 24.98 25.8 78.4 26 4.9 40.9
20:40 1017 30.03 846 24.98 25.7 78.2 26 5.3 41.5
20:45 1017 30.03 846 24.98 25.4 77.6 28 5.7 42.2
20:50 1017 30.03 846 24.98 25.1 77.1 28 5.4 41.8
20:55 1017 30.03 846 24.98 25.1 77.2 28 5.7 42.3
21:00 1017 30.03 846 24.98 24.9 76.9 29 5.7 42.3
21:05 1017 30.03 846 24.98 24.8 76.6 29 5.9 42.7
21:10 1017 30.03 846 24.98 24.7 76.4 30 6.2 43.1
21:15 1017 30.03 847 25.01 24.5 76 31 6.4 43.5
21:20 1017 30.03 847 25.01 24.4 75.9 31 6.4 43.6
21:25 1017 30.03 847 25.01 24.5 76.1 31 6.7 44.1
21:30 1017 30.03 847 25.01 24.7 76.4 32 7.1 44.8
21:35 1017 30.03 847 25.01 24.7 76.5 33 7.5 45.5
21:40 1018 30.06 847 25.01 24.8 76.6 33 7.8 46.1
21:45 1018 30.06 847 25.01 24.7 76.5 34 8 46.3
21:50 1018 30.06 847 25.01 24.7 76.4 34 8.1 46.7
21:55 1018 30.06 847 25.01 24.6 76.2 34 8.1 46.5
22:00 1018 30.06 847 25.01 24.5 76.1 35 8.2 46.7
22:05 1018 30.06 847 25.01 24.4 75.8 35 8.2 46.8
22:10 1018 30.06 847 25.01 24.3 75.7 36 8.5 47.3
22:15 1018 30.06 847 25.01 24.2 75.6 36 8.6 47.4
22:20 1018 30.06 847 25.01 24.2 75.5 37 8.7 47.7
22:25 1018 30.06 847 25.01 24.1 75.5 37 8.8 47.8
22:30 1018 30.06 847 25.01 24.2 75.5 37 8.8 47.9
22:35 1018 30.06 847 25.01 24.2 75.5 37 8.9 48
22:40 1018 30.06 847 25.01 24.3 75.7 36 8.6 47.5
22:45 1018 30.06 847 25.01 24.5 76 36 8.7 47.6
22:50 1018 30.06 847 25.01 24.3 75.7 37 8.9 48.1
22:55 1017 30.03 847 25.01 24.1 75.4 37 8.7 47.7
23:00 1017 30.03 847 25.01 24.1 75.4 38 9 48.3
23:05 1017 30.03 846 24.98 23.8 74.9 38 8.7 47.7
23:10 1017 30.03 846 24.98 24 75.1 37 8.6 47.5
23:15 1017 30.03 847 25.01 23.9 74.9 38 8.7 47.7
23:20 1017 30.03 847 25.01 23.8 74.8 39 9.1 48.4
23:25 1017 30.03 847 25.01 23.6 74.5 39 8.9 48.1
23:30 1018 30.06 847 25.01 23.7 74.7 38 8.9 48
23:35 1018 30.06 847 25.01 23.7 74.6 39 9.1 48.5
23:40 1018 30.06 847 25.01 23.4 74.2 39 9 48.2
23:45 1018 30.06 847 25.01 23.4 74.1 39 8.9 48
23:50 1018 30.06 847 25.01 23.3 73.9 39 8.8 47.9
23:55 1018 30.06 847 25.01 23.3 73.9 40 9 48.1
24:00 1018 30.06 847 25.01 23.1 73.5 40 8.8 47.8